This is the latest recevied weather packets stored in our database for station/object OE-11049. If no packets are shown the sender has not sent any weather packets the latest 10 day(s).
| Time | Temp. | Humidity | Pressure | Rain* | Wind** | Luminosity | Snow |
|---|---|---|---|---|---|---|---|
| 1787816490 | 20.56° C | 72% | 1014.3 hPa | 0 mm | - | 421 W/m² | - |
| 1787816116 | 20° C | 73% | 1014.4 hPa | 0 mm | - | 392 W/m² | - |
| 1787815514 | 19.44° C | 77% | 1014.5 hPa | 0 mm | - | 362 W/m² | - |
| 1787814690 | 18.89° C | 77% | 1014.6 hPa | 0 mm | - | 298 W/m² | - |
| 1787813717 | 18.33° C | 78% | 1014.9 hPa | 0 mm | - | 257 W/m² | - |
| 1787812890 | 17.78° C | 81% | 1015 hPa | 0 mm | - | 257 W/m² | - |
| 1787812517 | 17.78° C | 81% | 1015.2 hPa | 0 mm | - | 158 W/m² | - |
| 1787811917 | 17.78° C | 82% | 1015.2 hPa | 0 mm | - | 146 W/m² | - |
| 1787811329 | 17.22° C | 86% | 1015.2 hPa | 0 mm | - | 129 W/m² | - |
| 1787810717 | 17.22° C | 84% | 1015.3 hPa | 0 mm | - | 123 W/m² | - |
| 1787810117 | 17.22° C | 84% | 1015.2 hPa | 0 mm | - | 152 W/m² | - |
| 1787809290 | 16.67° C | 85% | 1015.4 hPa | 0 mm | - | 152 W/m² | - |
| 1787808917 | 16.11° C | 86% | 1015.8 hPa | 0 mm | - | 111 W/m² | - |
| 1787808317 | 16.11° C | 86% | 1015.8 hPa | 0 mm | - | 94 W/m² | - |
| 1787807490 | 15.56° C | 89% | 1015.6 hPa | 0 mm | - | 64 W/m² | - |
| 1787807117 | 15° C | 91% | 1016 hPa | 0 mm | - | 41 W/m² | - |
| 1787806517 | 14.44° C | 92% | 1016.1 hPa | 0 mm | - | 23 W/m² | - |
| 1787805689 | 14.44° C | 92% | 1016.1 hPa | 0 mm | - | 12 W/m² | - |
| 1787805317 | 14.44° C | 91% | 1016.1 hPa | 0 mm | - | 6 W/m² | - |
| 1787804717 | 15° C | 92% | 1016.1 hPa | 0 mm | - | 0 W/m² | - |
| 1787803890 | 15° C | 92% | 1015.8 hPa | 0 mm | - | 0 W/m² | - |
| 1787803517 | 14.44° C | 93% | 1015.9 hPa | 0 mm | - | 0 W/m² | - |
| 1787802917 | 14.44° C | 93% | 1015.8 hPa | 0 mm | - | 0 W/m² | - |
| 1787802317 | 14.44° C | 93% | 1015.6 hPa | 0 mm | - | 0 W/m² | - |
| 1787801717 | 14.44° C | 92% | 1015.6 hPa | 0 mm | - | 0 W/m² | - |
* Rain latest hour (hover to see other rain measurements)
** Current wind speed in m/s (hover to see current wind gust speed)